Time;durP1;ratioP1;P1;durP2;ratioP2;P2;SDS_P1;SDS_P2;PMS_P1;PMS_P2;Temp;Humidity;BMP_temperature;BMP_pressure;BME280_temperature;BME280_humidity;BME280_pressure;Samples;Min_cycle;Max_cycle;Signal;HPM_P1;HPM_P2
2022/11/09 00:01:46;;;;;;;6.45;4.38;;;;;;;;;;5033113;28;20046;-68
2022/11/09 00:04:12;;;;;;;5.40;4.40;;;;;;;;;;5032843;28;20050;-68
2022/11/09 00:06:39;;;;;;;8.30;4.65;;;;;;;;;;5032282;28;20053;-68
2022/11/09 00:09:06;;;;;;;7.32;4.47;;;;;;;;;;5030516;28;20116;-68
2022/11/09 00:11:35;;;;;;;6.95;4.32;;;;;;;;;;5030234;28;20148;-69
2022/11/09 00:14:02;;;;;;;5.43;4.25;;;;;;;;;;5031627;28;20050;-68
2022/11/09 00:16:28;;;;;;;7.22;4.30;;;;;;;;;;5031732;28;20050;-68
2022/11/09 00:18:55;;;;;;;5.28;4.07;;;;;;;;;;5031805;28;20049;-69
2022/11/09 00:21:23;;;;;;;5.03;3.88;;;;;;;;;;5025381;28;20132;-69
2022/11/09 00:23:50;;;;;;;7.22;4.25;;;;;;;;;;5021374;28;20050;-70
2022/11/09 00:26:17;;;;;;;5.22;4.13;;;;;;;;;;5025421;28;20060;-68
2022/11/09 00:28:44;;;;;;;6.22;3.80;;;;;;;;;;5025637;28;20053;-69
2022/11/09 00:31:12;;;;;;;6.55;4.50;;;;;;;;;;5030744;28;20068;-68
2022/11/09 00:33:39;;;;;;;5.85;4.30;;;;;;;;;;5031729;28;20069;-68
2022/11/09 00:36:08;;;;;;;7.50;5.00;;;;;;;;;;5031782;28;20072;-68
2022/11/09 00:38:35;;;;;;;6.97;4.38;;;;;;;;;;5021707;28;20120;-69
2022/11/09 00:41:03;;;;;;;8.35;4.18;;;;;;;;;;5012392;28;20088;-70
2022/11/09 00:43:30;;;;;;;6.60;4.53;;;;;;;;;;5012449;28;20127;-70
2022/11/09 00:45:56;;;;;;;7.40;4.32;;;;;;;;;;5012398;28;20077;-70
2022/11/09 00:48:23;;;;;;;6.60;4.50;;;;;;;;;;5011750;28;20500;-70
2022/11/09 00:50:53;;;;;;;9.13;4.43;;;;;;;;;;5011514;28;20390;-70
2022/11/09 00:53:20;;;;;;;7.05;4.55;;;;;;;;;;5011981;28;20045;-70
2022/11/09 00:55:58;;;;;;;8.25;4.50;;;;;;;;;;5012479;28;20104;-71
2022/11/09 00:58:26;;;;;;;7.68;4.40;;;;;;;;;;5011719;28;20053;-70
2022/11/09 01:00:53;;;;;;;6.90;4.07;;;;;;;;;;5012018;28;20092;-70
2022/11/09 01:03:20;;;;;;;6.38;4.75;;;;;;;;;;5012265;28;20050;-70
2022/11/09 01:05:47;;;;;;;7.93;4.53;;;;;;;;;;5011260;28;20049;-70
2022/11/09 01:08:14;;;;;;;6.25;4.13;;;;;;;;;;5011281;28;20054;-70
2022/11/09 01:10:46;;;;;;;7.15;4.45;;;;;;;;;;5011961;28;20050;-69
2022/11/09 01:13:13;;;;;;;5.30;4.50;;;;;;;;;;5011951;28;20054;-70
2022/11/09 01:15:47;;;;;;;5.75;4.68;;;;;;;;;;5011949;28;20496;-70
2022/11/09 01:18:15;;;;;;;6.38;4.53;;;;;;;;;;5010256;28;20054;-70
2022/11/09 01:20:43;;;;;;;6.55;4.47;;;;;;;;;;5011462;28;20050;-69
2022/11/09 01:23:11;;;;;;;5.35;4.00;;;;;;;;;;5011836;28;20528;-67
2022/11/09 01:25:38;;;;;;;7.70;5.22;;;;;;;;;;5012022;28;20046;-67
2022/11/09 01:28:05;;;;;;;6.57;4.55;;;;;;;;;;5011411;28;20563;-68
2022/11/09 01:30:34;;;;;;;7.68;4.32;;;;;;;;;;5011689;28;20107;-67
2022/11/09 01:33:09;;;;;;;4.53;3.72;;;;;;;;;;5011789;28;20078;-67
2022/11/09 01:35:37;;;;;;;6.22;3.78;;;;;;;;;;5011729;28;20303;-67
2022/11/09 01:38:04;;;;;;;7.30;3.72;;;;;;;;;;5011256;28;20053;-67
2022/11/09 01:40:32;;;;;;;5.78;3.58;;;;;;;;;;5011677;28;20083;-67
2022/11/09 01:43:12;;;;;;;5.63;3.75;;;;;;;;;;5011637;28;20096;-67
2022/11/09 01:45:39;;;;;;;3.72;3.38;;;;;;;;;;5025205;28;20046;-68
2022/11/09 01:48:11;;;;;;;5.25;3.55;;;;;;;;;;5010070;28;20054;-68
2022/11/09 01:50:43;;;;;;;4.70;3.40;;;;;;;;;;5010655;28;20109;-67
2022/11/09 01:53:14;;;;;;;4.03;3.22;;;;;;;;;;5010508;28;20058;-67
2022/11/09 01:55:41;;;;;;;5.90;3.55;;;;;;;;;;5010406;28;20081;-67
2022/11/09 01:58:11;;;;;;;5.90;4.38;;;;;;;;;;5011183;28;20054;-67
2022/11/09 02:00:39;;;;;;;5.53;4.00;;;;;;;;;;5010904;28;20468;-67
2022/11/09 02:03:17;;;;;;;5.50;3.50;;;;;;;;;;5030263;28;20050;-67
2022/11/09 02:05:44;;;;;;;5.82;3.83;;;;;;;;;;5030394;28;20054;-67
2022/11/09 02:08:14;;;;;;;4.93;4.13;;;;;;;;;;5013379;28;20108;-67
2022/11/09 02:11:10;;;;;;;5.30;3.55;;;;;;;;;;5029753;28;20057;-67
2022/11/09 02:13:37;;;;;;;4.72;3.08;;;;;;;;;;5027912;28;20046;-67
2022/11/09 02:16:05;;;;;;;4.78;3.40;;;;;;;;;;5030215;28;20104;-67
2022/11/09 02:18:32;;;;;;;3.83;3.00;;;;;;;;;;5014307;28;20112;-67
2022/11/09 02:20:58;;;;;;;6.15;3.63;;;;;;;;;;5013618;28;20104;-67
2022/11/09 02:23:25;;;;;;;5.82;3.25;;;;;;;;;;5014605;28;20524;-67
2022/11/09 02:26:05;;;;;;;6.13;4.05;;;;;;;;;;5013589;28;20104;-67
2022/11/09 02:28:31;;;;;;;6.85;3.78;;;;;;;;;;5013030;28;20046;-67
2022/11/09 02:30:58;;;;;;;7.85;3.90;;;;;;;;;;5013607;28;20057;-67
2022/11/09 02:33:25;;;;;;;4.25;3.60;;;;;;;;;;5029544;28;20105;-67
2022/11/09 02:35:51;;;;;;;5.57;3.80;;;;;;;;;;5030059;28;20054;-67
2022/11/09 02:38:18;;;;;;;7.35;4.32;;;;;;;;;;5014328;28;20046;-67
2022/11/09 02:40:47;;;;;;;6.05;3.78;;;;;;;;;;5014889;28;20456;-67
2022/11/09 02:43:14;;;;;;;8.38;4.47;;;;;;;;;;5013078;28;20050;-65
2022/11/09 02:45:40;;;;;;;8.15;4.10;;;;;;;;;;5029565;28;20050;-67
2022/11/09 02:48:07;;;;;;;5.55;4.68;;;;;;;;;;5014011;28;20100;-67
2022/11/09 02:50:35;;;;;;;6.70;4.10;;;;;;;;;;5014507;28;20054;-68
2022/11/09 02:53:02;;;;;;;5.55;4.18;;;;;;;;;;5014263;28;20103;-67
2022/11/09 02:55:29;;;;;;;6.47;5.15;;;;;;;;;;5034133;23;20042;-69
2022/11/09 02:57:55;;;;;;;6.70;4.03;;;;;;;;;;5013908;28;20662;-69
2022/11/09 03:00:22;;;;;;;7.63;4.68;;;;;;;;;;5013963;28;20073;-68
2022/11/09 03:02:49;;;;;;;7.75;4.85;;;;;;;;;;5014309;28;20459;-69
2022/11/09 03:05:15;;;;;;;6.28;4.10;;;;;;;;;;5014244;28;20050;-68
2022/11/09 03:07:42;;;;;;;6.28;4.38;;;;;;;;;;5013913;28;20058;-69
2022/11/09 03:10:08;;;;;;;5.78;3.78;;;;;;;;;;5013401;28;20050;-69
2022/11/09 03:12:35;;;;;;;5.70;4.10;;;;;;;;;;5013245;28;20104;-69
2022/11/09 03:15:05;;;;;;;5.78;4.05;;;;;;;;;;5013932;28;20397;-69
2022/11/09 03:17:32;;;;;;;6.38;3.90;;;;;;;;;;5014073;28;20050;-69
2022/11/09 03:19:59;;;;;;;6.00;3.83;;;;;;;;;;5013196;28;20504;-69
2022/11/09 03:22:25;;;;;;;5.82;3.75;;;;;;;;;;5013844;28;20049;-69
2022/11/09 03:24:52;;;;;;;4.43;3.35;;;;;;;;;;5013713;28;20100;-69
2022/11/09 03:27:19;;;;;;;8.63;4.35;;;;;;;;;;5013568;28;20054;-69
2022/11/09 03:29:45;;;;;;;5.32;3.22;;;;;;;;;;5013526;28;20049;-69
2022/11/09 03:32:12;;;;;;;6.25;3.90;;;;;;;;;;5013706;28;20050;-69
2022/11/09 03:34:38;;;;;;;6.40;3.80;;;;;;;;;;5013648;28;20265;-69
2022/11/09 03:37:05;;;;;;;8.20;4.43;;;;;;;;;;5013649;28;20050;-70
2022/11/09 03:39:32;;;;;;;5.43;4.10;;;;;;;;;;5011357;28;20096;-69
2022/11/09 03:41:59;;;;;;;6.00;4.05;;;;;;;;;;5013218;28;20351;-69
2022/11/09 03:44:25;;;;;;;9.55;4.95;;;;;;;;;;5013307;28;20501;-69
2022/11/09 03:46:52;;;;;;;7.88;4.80;;;;;;;;;;5013502;28;20402;-69
2022/11/09 03:49:18;;;;;;;11.63;5.25;;;;;;;;;;5012903;28;20049;-68
2022/11/09 03:51:45;;;;;;;5.45;4.70;;;;;;;;;;5013355;28;20045;-68
2022/11/09 03:54:12;;;;;;;7.30;5.00;;;;;;;;;;5013004;28;20401;-68
2022/11/09 03:56:38;;;;;;;6.43;4.93;;;;;;;;;;5013072;28;20112;-69
2022/11/09 03:59:05;;;;;;;8.70;5.25;;;;;;;;;;5012768;28;20054;-69
2022/11/09 04:01:31;;;;;;;6.97;5.25;;;;;;;;;;5013107;28;20083;-68
2022/11/09 04:03:58;;;;;;;9.13;5.43;;;;;;;;;;5012975;28;20049;-68
2022/11/09 04:06:25;;;;;;;6.60;5.07;;;;;;;;;;5013098;28;20085;-68
2022/11/09 04:08:52;;;;;;;6.45;5.32;;;;;;;;;;5012226;28;20136;-68
2022/11/09 04:11:18;;;;;;;8.00;5.60;;;;;;;;;;5012915;28;20049;-68
2022/11/09 04:13:46;;;;;;;7.30;5.30;;;;;;;;;;5012985;28;20104;-69
2022/11/09 04:16:12;;;;;;;8.82;5.78;;;;;;;;;;5012879;28;20058;-68
2022/11/09 04:18:39;;;;;;;8.93;6.07;;;;;;;;;;5012091;28;20049;-68
2022/11/09 04:21:06;;;;;;;9.98;5.85;;;;;;;;;;5012691;28;20079;-68
2022/11/09 04:23:33;;;;;;;6.28;5.68;;;;;;;;;;5012599;28;20045;-69
2022/11/09 04:26:00;;;;;;;9.07;6.40;;;;;;;;;;5012668;28;20489;-68
2022/11/09 04:28:26;;;;;;;9.38;6.13;;;;;;;;;;5012174;28;20050;-68
2022/11/09 04:30:53;;;;;;;6.70;5.70;;;;;;;;;;5012736;28;20464;-68
2022/11/09 04:33:19;;;;;;;9.13;5.90;;;;;;;;;;5012795;28;20571;-68
2022/11/09 04:35:47;;;;;;;9.50;6.03;;;;;;;;;;5012745;28;20081;-68
2022/11/09 04:38:15;;;;;;;9.35;6.05;;;;;;;;;;4997109;28;20051;-68
2022/11/09 04:40:42;;;;;;;7.95;6.60;;;;;;;;;;4992742;28;20058;-68
2022/11/09 04:43:11;;;;;;;10.35;6.43;;;;;;;;;;5000998;28;20493;-68
2022/11/09 04:45:38;;;;;;;10.00;6.32;;;;;;;;;;4998038;28;20505;-68
2022/11/09 04:48:05;;;;;;;10.27;6.85;;;;;;;;;;5009901;28;20054;-69
2022/11/09 04:50:32;;;;;;;7.75;6.55;;;;;;;;;;5012473;28;20107;-69
2022/11/09 04:53:12;;;;;;;11.05;7.15;;;;;;;;;;4997361;28;20046;-69
2022/11/09 04:55:39;;;;;;;9.75;6.22;;;;;;;;;;4992443;28;20077;-68
2022/11/09 04:58:06;;;;;;;9.63;6.82;;;;;;;;;;4992251;28;20112;-67
2022/11/09 05:00:33;;;;;;;10.32;7.05;;;;;;;;;;4992914;28;20101;-68
2022/11/09 05:03:03;;;;;;;11.65;7.25;;;;;;;;;;5008923;28;20038;-69
2022/11/09 05:05:32;;;;;;;9.82;7.53;;;;;;;;;;5005553;28;20050;-69
2022/11/09 05:07:58;;;;;;;11.57;6.72;;;;;;;;;;4992153;28;20055;-68
2022/11/09 05:10:25;;;;;;;7.88;6.30;;;;;;;;;;4992626;28;20054;-69
2022/11/09 05:13:04;;;;;;;10.68;6.90;;;;;;;;;;4992885;28;20108;-69
2022/11/09 05:15:31;;;;;;;13.05;7.70;;;;;;;;;;5011728;28;20069;-68
2022/11/09 05:17:58;;;;;;;9.38;6.88;;;;;;;;;;5011416;28;20050;-69
2022/11/09 05:20:24;;;;;;;9.30;6.63;;;;;;;;;;5011891;28;20120;-68
2022/11/09 05:25:36;;;;;;;8.98;6.40;;;;;;;;;;4992369;28;20066;-68
2022/11/09 05:28:03;;;;;;;8.75;6.22;;;;;;;;;;4991716;28;20568;-68
2022/11/09 05:30:30;;;;;;;9.35;6.65;;;;;;;;;;4992174;28;20129;-68
2022/11/09 05:32:56;;;;;;;10.63;7.22;;;;;;;;;;4992560;28;20047;-68
2022/11/09 05:35:23;;;;;;;10.80;7.82;;;;;;;;;;4992355;28;20050;-68
2022/11/09 05:37:50;;;;;;;13.85;8.80;;;;;;;;;;4995695;28;20054;-69
2022/11/09 05:40:17;;;;;;;11.68;8.10;;;;;;;;;;4996459;28;20101;-68
2022/11/09 05:42:44;;;;;;;13.48;7.80;;;;;;;;;;4995896;28;20456;-69
2022/11/09 05:45:13;;;;;;;12.07;7.22;;;;;;;;;;4995768;28;20050;-69
2022/11/09 05:48:02;;;;;;;9.27;7.07;;;;;;;;;;4995262;28;20050;-69
2022/11/09 05:50:28;;;;;;;10.93;7.28;;;;;;;;;;4995810;28;20489;-69
2022/11/09 05:52:57;;;;;;;10.73;7.20;;;;;;;;;;4995947;28;20042;-68
2022/11/09 05:55:24;;;;;;;11.40;7.60;;;;;;;;;;4995664;28;20108;-69
2022/11/09 05:57:51;;;;;;;10.18;6.18;;;;;;;;;;4994247;28;20054;-69
2022/11/09 06:00:17;;;;;;;8.13;6.70;;;;;;;;;;4992942;28;20120;-69
2022/11/09 06:02:44;;;;;;;8.57;7.22;;;;;;;;;;5011187;28;20046;-68
2022/11/09 06:05:11;;;;;;;13.65;7.35;;;;;;;;;;5005553;28;20468;-69
2022/11/09 06:07:37;;;;;;;11.73;7.78;;;;;;;;;;4993560;28;20055;-69
2022/11/09 06:10:05;;;;;;;10.30;6.97;;;;;;;;;;5007025;28;20054;-69
2022/11/09 06:12:31;;;;;;;10.52;7.20;;;;;;;;;;5013253;28;20054;-69
2022/11/09 06:14:58;;;;;;;10.68;7.20;;;;;;;;;;5005689;28;20054;-69
2022/11/09 06:17:24;;;;;;;10.65;6.70;;;;;;;;;;4994238;28;20050;-69
2022/11/09 06:19:51;;;;;;;10.43;7.72;;;;;;;;;;4992750;28;20116;-69
2022/11/09 06:22:18;;;;;;;9.52;7.57;;;;;;;;;;5007767;28;20042;-68
2022/11/09 06:24:44;;;;;;;11.70;6.63;;;;;;;;;;5011472;28;20046;-68
2022/11/09 06:27:11;;;;;;;9.20;6.88;;;;;;;;;;5012547;28;20583;-68
2022/11/09 06:29:38;;;;;;;10.63;7.63;;;;;;;;;;5012730;28;20050;-69
2022/11/09 06:32:04;;;;;;;9.50;6.95;;;;;;;;;;5013955;28;20049;-68
2022/11/09 06:34:31;;;;;;;12.68;7.18;;;;;;;;;;5014494;28;20045;-71
2022/11/09 06:36:59;;;;;;;7.10;5.85;;;;;;;;;;4990219;28;20058;-76
2022/11/09 06:39:27;;;;;;;6.97;5.60;;;;;;;;;;5010323;28;20133;-74
2022/11/09 06:41:53;;;;;;;7.72;6.45;;;;;;;;;;5013212;28;20050;-73
2022/11/09 06:44:20;;;;;;;8.18;6.25;;;;;;;;;;5013139;28;20104;-74
2022/11/09 06:46:47;;;;;;;10.63;6.03;;;;;;;;;;5012200;28;20050;-75
2022/11/09 06:49:13;;;;;;;9.55;6.28;;;;;;;;;;5011707;28;20117;-75
2022/11/09 06:51:40;;;;;;;10.52;6.82;;;;;;;;;;5007108;28;20456;-74
2022/11/09 06:54:07;;;;;;;8.40;6.43;;;;;;;;;;4999592;28;20429;-75
2022/11/09 06:56:35;;;;;;;11.20;7.25;;;;;;;;;;4993082;28;20050;-74
2022/11/09 06:59:02;;;;;;;11.40;7.07;;;;;;;;;;5009236;28;20116;-74
2022/11/09 07:01:28;;;;;;;13.40;7.05;;;;;;;;;;5013542;28;20054;-75
2022/11/09 07:03:55;;;;;;;10.98;7.43;;;;;;;;;;5012696;28;20054;-73
2022/11/09 07:06:22;;;;;;;11.05;7.43;;;;;;;;;;5005568;28;20052;-73
2022/11/09 07:08:49;;;;;;;10.18;7.30;;;;;;;;;;5011175;28;20054;-73
2022/11/09 07:11:15;;;;;;;9.48;7.60;;;;;;;;;;5010660;28;20061;-73
2022/11/09 07:13:42;;;;;;;8.52;6.97;;;;;;;;;;5003677;28;20321;-73
2022/11/09 07:16:11;;;;;;;11.82;7.00;;;;;;;;;;5009909;28;20049;-74
2022/11/09 07:18:38;;;;;;;8.15;6.82;;;;;;;;;;5011466;28;20141;-73
2022/11/09 07:21:05;;;;;;;12.23;6.85;;;;;;;;;;5001734;28;20046;-74
2022/11/09 07:23:38;;;;;;;16.65;8.65;;;;;;;;;;5009170;28;20565;-70
2022/11/09 07:26:05;;;;;;;13.30;8.77;;;;;;;;;;5010305;28;20123;-68
2022/11/09 07:28:32;;;;;;;11.18;7.80;;;;;;;;;;5005201;28;20478;-67
2022/11/09 07:30:59;;;;;;;10.75;8.00;;;;;;;;;;4993075;28;20145;-68
2022/11/09 07:33:29;;;;;;;10.55;8.43;;;;;;;;;;4992846;28;20054;-68
2022/11/09 07:36:00;;;;;;;10.38;8.77;;;;;;;;;;4992669;28;20050;-68
2022/11/09 07:38:29;;;;;;;14.05;9.20;;;;;;;;;;4992285;28;20050;-67
2022/11/09 07:41:00;;;;;;;12.15;8.82;;;;;;;;;;4992682;28;20050;-68
2022/11/09 07:43:28;;;;;;;9.23;8.23;;;;;;;;;;4992545;28;20058;-67
2022/11/09 07:45:55;;;;;;;10.45;7.38;;;;;;;;;;4992731;28;20062;-66
2022/11/09 07:48:22;;;;;;;11.00;8.10;;;;;;;;;;4992478;28;20096;-69
2022/11/09 07:50:49;;;;;;;11.43;8.32;;;;;;;;;;4992833;28;20056;-67
2022/11/09 07:53:16;;;;;;;14.23;7.90;;;;;;;;;;4992378;28;20050;-68
2022/11/09 07:55:43;;;;;;;11.40;7.70;;;;;;;;;;4991957;28;20065;-67
2022/11/09 07:58:12;;;;;;;12.63;8.88;;;;;;;;;;5000596;28;20128;-68
2022/11/09 08:00:40;;;;;;;13.68;8.55;;;;;;;;;;5012100;28;20136;-68
2022/11/09 08:03:06;;;;;;;9.88;7.93;;;;;;;;;;5013039;28;20409;-68
2022/11/09 08:05:34;;;;;;;12.82;9.18;;;;;;;;;;5013081;28;20061;-67
2022/11/09 08:08:03;;;;;;;13.45;7.95;;;;;;;;;;5009493;28;20119;-68
2022/11/09 08:10:30;;;;;;;13.25;8.63;;;;;;;;;;5009578;28;20661;-67
2022/11/09 08:13:18;;;;;;;11.65;8.85;;;;;;;;;;5011664;28;20088;-67
2022/11/09 08:15:45;;;;;;;10.85;8.60;;;;;;;;;;5012236;28;20060;-67
2022/11/09 08:18:16;;;;;;;12.50;8.23;;;;;;;;;;5012284;28;20058;-67
2022/11/09 08:20:44;;;;;;;11.50;8.70;;;;;;;;;;5012784;28;20141;-66
2022/11/09 08:23:15;;;;;;;10.38;7.78;;;;;;;;;;5011459;28;20045;-68
2022/11/09 08:25:42;;;;;;;12.00;7.45;;;;;;;;;;5012953;28;20049;-68
2022/11/09 08:28:08;;;;;;;13.75;6.70;;;;;;;;;;5008178;28;20112;-69
2022/11/09 08:30:42;;;;;;;10.68;7.43;;;;;;;;;;5004328;28;20082;-74
2022/11/09 08:33:09;;;;;;;10.02;7.00;;;;;;;;;;5007419;28;20046;-70
2022/11/09 08:35:36;;;;;;;13.05;6.78;;;;;;;;;;4999432;28;20471;-69
2022/11/09 08:38:04;;;;;;;11.20;6.68;;;;;;;;;;5000762;28;20592;-70
2022/11/09 08:40:32;;;;;;;8.90;6.72;;;;;;;;;;4999119;28;20069;-69
2022/11/09 08:43:04;;;;;;;9.05;6.57;;;;;;;;;;4998200;28;20523;-69
2022/11/09 08:45:32;;;;;;;9.20;6.35;;;;;;;;;;5000836;28;20092;-69
2022/11/09 08:47:59;;;;;;;10.05;5.60;;;;;;;;;;4998674;28;20050;-70
2022/11/09 08:50:27;;;;;;;10.52;5.45;;;;;;;;;;5005872;28;20065;-68
2022/11/09 08:52:54;;;;;;;7.53;5.38;;;;;;;;;;5006915;28;20136;-68
2022/11/09 08:55:21;;;;;;;7.68;4.80;;;;;;;;;;5002536;28;20141;-70
2022/11/09 08:57:48;;;;;;;5.15;4.15;;;;;;;;;;5005594;28;20057;-69
2022/11/09 09:00:15;;;;;;;7.53;4.78;;;;;;;;;;5004719;28;20045;-72
2022/11/09 09:02:42;;;;;;;4.78;4.28;;;;;;;;;;5001492;28;20054;-72
2022/11/09 09:05:08;;;;;;;4.40;4.00;;;;;;;;;;5001400;28;20045;-75
2022/11/09 09:07:35;;;;;;;7.60;4.30;;;;;;;;;;5010936;28;20108;-76
2022/11/09 09:10:03;;;;;;;4.88;3.60;;;;;;;;;;5008944;28;20053;-72
2022/11/09 09:12:30;;;;;;;4.68;3.28;;;;;;;;;;5008718;28;20096;-72
2022/11/09 09:14:56;;;;;;;7.82;3.17;;;;;;;;;;5001704;28;20497;-73
2022/11/09 09:17:23;;;;;;;4.38;2.67;;;;;;;;;;5005232;28;20049;-73
2022/11/09 09:19:50;;;;;;;4.90;2.78;;;;;;;;;;5000392;28;20049;-71
2022/11/09 09:22:18;;;;;;;4.63;3.00;;;;;;;;;;5005406;28;20092;-71
2022/11/09 09:24:45;;;;;;;6.57;3.05;;;;;;;;;;4989684;28;20100;-71
2022/11/09 09:27:12;;;;;;;3.60;3.05;;;;;;;;;;5000544;28;20049;-70
2022/11/09 09:29:38;;;;;;;3.70;2.88;;;;;;;;;;4997412;28;20046;-75
2022/11/09 09:32:05;;;;;;;4.30;2.80;;;;;;;;;;5000095;28;20095;-69
2022/11/09 09:34:32;;;;;;;5.13;3.50;;;;;;;;;;5006063;28;20050;-71
2022/11/09 09:36:58;;;;;;;3.50;2.47;;;;;;;;;;5002363;28;20053;-73
2022/11/09 09:39:25;;;;;;;2.50;2.30;;;;;;;;;;4997138;28;20045;-72
2022/11/09 09:41:54;;;;;;;3.00;2.70;;;;;;;;;;4998332;28;20120;-73
2022/11/09 09:44:53;;;;;;;3.25;2.72;;;;;;;;;;4997719;28;20556;-74
2022/11/09 09:47:41;;;;;;;4.38;2.63;;;;;;;;;;4997837;28;20085;-68
2022/11/09 09:50:18;;;;;;;4.50;3.05;;;;;;;;;;5004163;28;20101;-72
2022/11/09 09:53:15;;;;;;;4.05;2.70;;;;;;;;;;5000235;28;20058;-71
2022/11/09 09:56:27;;;;;;;3.20;2.88;;;;;;;;;;5000913;28;20241;-72
2022/11/09 09:58:57;;;;;;;4.32;2.65;;;;;;;;;;4982887;28;20058;-75
2022/11/09 10:01:28;;;;;;;5.70;3.15;;;;;;;;;;4990314;28;20108;-67
2022/11/09 10:03:55;;;;;;;3.95;2.92;;;;;;;;;;5000854;28;20077;-70
2022/11/09 10:06:36;;;;;;;4.47;2.88;;;;;;;;;;5000066;28;20120;-73
2022/11/09 10:09:24;;;;;;;2.85;2.50;;;;;;;;;;5003817;28;20131;-70
2022/11/09 10:12:09;;;;;;;2.75;2.33;;;;;;;;;;5001640;28;20113;-70
2022/11/09 10:14:36;;;;;;;4.43;2.38;;;;;;;;;;5001013;28;20041;-73
2022/11/09 10:17:24;;;;;;;4.35;2.28;;;;;;;;;;4999959;28;20648;-71
2022/11/09 10:19:53;;;;;;;4.53;2.33;;;;;;;;;;4987763;28;20054;-70
2022/11/09 10:22:45;;;;;;;2.63;2.03;;;;;;;;;;5003640;28;20050;-71
2022/11/09 10:25:20;;;;;;;3.05;1.92;;;;;;;;;;5007314;28;20101;-68
2022/11/09 10:28:13;;;;;;;3.15;1.70;;;;;;;;;;5004776;28;20104;-74
2022/11/09 10:30:40;;;;;;;3.30;2.42;;;;;;;;;;5007373;28;20046;-71
2022/11/09 10:33:09;;;;;;;2.28;2.00;;;;;;;;;;5008682;28;20049;-71
2022/11/09 10:35:38;;;;;;;4.50;1.90;;;;;;;;;;5007769;28;20097;-73
2022/11/09 10:38:07;;;;;;;4.60;2.10;;;;;;;;;;5006510;28;20492;-73
2022/11/09 10:40:38;;;;;;;2.83;2.00;;;;;;;;;;5006191;28;20484;-74
2022/11/09 10:43:09;;;;;;;2.22;1.80;;;;;;;;;;5003767;28;20475;-72
2022/11/09 10:45:38;;;;;;;2.35;1.80;;;;;;;;;;5007965;28;20050;-73
2022/11/09 10:48:07;;;;;;;2.83;1.98;;;;;;;;;;5004995;28;20053;-73
2022/11/09 10:50:40;;;;;;;3.75;2.17;;;;;;;;;;4993257;28;20159;-76
2022/11/09 10:53:13;;;;;;;2.60;2.40;;;;;;;;;;4986200;28;20062;-75
2022/11/09 10:55:52;;;;;;;2.72;1.95;;;;;;;;;;5001720;28;20042;-74
2022/11/09 10:58:26;;;;;;;3.30;1.88;;;;;;;;;;5002942;28;20049;-69
2022/11/09 11:00:59;;;;;;;3.90;1.70;;;;;;;;;;4998715;28;20051;-70
2022/11/09 11:03:26;;;;;;;2.00;1.48;;;;;;;;;;5011815;28;20478;-68
2022/11/09 11:06:08;;;;;;;3.25;1.98;;;;;;;;;;5021974;28;20076;-68
2022/11/09 11:08:37;;;;;;;1.67;1.40;;;;;;;;;;5021811;28;20050;-67
2022/11/09 11:11:09;;;;;;;3.53;1.58;;;;;;;;;;5024811;28;20487;-67
2022/11/09 11:14:15;;;;;;;1.90;1.67;;;;;;;;;;5021473;28;20057;-68
2022/11/09 11:16:51;;;;;;;3.20;1.50;;;;;;;;;;5023444;28;20050;-69
2022/11/09 11:19:44;;;;;;;8.48;6.10;;;;;;;;;;5023339;28;20051;-67
2022/11/09 11:22:11;;;;;;;2.38;1.98;;;;;;;;;;5021291;28;20034;-69
2022/11/09 11:24:53;;;;;;;2.45;1.40;;;;;;;;;;5024592;28;20139;-75
2022/11/09 11:27:43;;;;;;;4.50;1.73;;;;;;;;;;5024997;28;20050;-78
2022/11/09 11:30:27;;;;;;;2.13;1.90;;;;;;;;;;5010029;28;20054;-73
2022/11/09 11:32:54;;;;;;;3.38;2.38;;;;;;;;;;5024605;28;20026;-75
2022/11/09 11:35:30;;;;;;;3.38;2.40;;;;;;;;;;5023824;28;20038;-73
2022/11/09 11:38:15;;;;;;;5.80;2.20;;;;;;;;;;5012128;28;20087;-77
2022/11/09 11:41:12;;;;;;;3.53;2.08;;;;;;;;;;5025623;28;20080;-77
2022/11/09 11:43:45;;;;;;;5.28;1.83;;;;;;;;;;5030027;28;20057;-75
2022/11/09 11:46:36;;;;;;;2.33;1.63;;;;;;;;;;5022809;28;20038;-74
2022/11/09 11:49:21;;;;;;;3.72;2.50;;;;;;;;;;5004558;28;20057;-74
2022/11/09 11:52:16;;;;;;;2.78;2.10;;;;;;;;;;4999269;28;20128;-73
2022/11/09 11:55:18;;;;;;;4.40;2.15;;;;;;;;;;4998561;28;20108;-76
2022/11/09 11:58:05;;;;;;;2.95;1.98;;;;;;;;;;5004014;28;20136;-75
2022/11/09 12:00:38;;;;;;;3.38;2.03;;;;;;;;;;5002987;28;20050;-72
2022/11/09 12:03:13;;;;;;;4.32;2.35;;;;;;;;;;5005137;28;20103;-70
2022/11/09 12:06:08;;;;;;;4.35;2.05;;;;;;;;;;4998396;28;20513;-71
2022/11/09 12:09:09;;;;;;;3.25;1.70;;;;;;;;;;4999338;28;20058;-74
2022/11/09 12:12:09;;;;;;;3.83;1.42;;;;;;;;;;5003449;28;20042;-75
2022/11/09 12:14:56;;;;;;;5.35;2.35;;;;;;;;;;5015703;28;20042;-74
2022/11/09 12:17:32;;;;;;;4.55;2.05;;;;;;;;;;4999247;28;20508;-74
2022/11/09 12:20:28;;;;;;;4.30;1.90;;;;;;;;;;4995936;28;20108;-71
2022/11/09 12:23:28;;;;;;;4.47;2.53;;;;;;;;;;4985667;28;20107;-77
2022/11/09 12:26:32;;;;;;;2.50;2.13;;;;;;;;;;5000840;28;20171;-76
2022/11/09 12:29:14;;;;;;;6.30;2.30;;;;;;;;;;4980723;28;20046;-76
2022/11/09 12:31:52;;;;;;;4.15;2.95;;;;;;;;;;4999153;28;20086;-75
2022/11/09 12:34:25;;;;;;;4.00;2.83;;;;;;;;;;5000000;28;20045;-76
2022/11/09 12:37:22;;;;;;;4.97;3.10;;;;;;;;;;5002062;28;20104;-73
2022/11/09 12:39:53;;;;;;;6.93;3.50;;;;;;;;;;5005513;28;20065;-77
2022/11/09 12:42:43;;;;;;;3.92;2.33;;;;;;;;;;4970675;28;20555;-72
2022/11/09 12:45:28;;;;;;;3.22;2.10;;;;;;;;;;4994738;28;20089;-74
2022/11/09 12:47:56;;;;;;;2.53;1.63;;;;;;;;;;4995345;28;20117;-71
2022/11/09 12:50:24;;;;;;;2.95;1.80;;;;;;;;;;4989653;28;20058;-70
2022/11/09 12:52:51;;;;;;;3.10;1.70;;;;;;;;;;4988736;28;20054;-69
2022/11/09 12:55:39;;;;;;;2.92;1.95;;;;;;;;;;5006507;28;20053;-71
2022/11/09 12:58:06;;;;;;;3.00;2.28;;;;;;;;;;5001227;28;20054;-69
2022/11/09 13:00:35;;;;;;;3.38;1.80;;;;;;;;;;4978802;28;20046;-72
2022/11/09 13:03:25;;;;;;;2.85;1.88;;;;;;;;;;5003076;28;20054;-69
2022/11/09 13:06:28;;;;;;;4.47;1.77;;;;;;;;;;5005841;28;20413;-70
2022/11/09 13:09:19;;;;;;;2.25;1.75;;;;;;;;;;4987788;28;20058;-70
2022/11/09 13:11:50;;;;;;;2.72;1.85;;;;;;;;;;5022515;28;20054;-71
2022/11/09 13:14:29;;;;;;;4.63;2.03;;;;;;;;;;5016328;28;20488;-71
2022/11/09 13:17:00;;;;;;;3.55;2.20;;;;;;;;;;5000152;28;20581;-70
2022/11/09 13:19:38;;;;;;;5.45;2.10;;;;;;;;;;5001342;28;20102;-70
2022/11/09 13:22:11;;;;;;;3.85;1.80;;;;;;;;;;4996405;28;20046;-70
2022/11/09 13:25:00;;;;;;;2.28;2.00;;;;;;;;;;4997445;28;20049;-71
2022/11/09 13:27:46;;;;;;;6.63;2.38;;;;;;;;;;4998883;28;20460;-70
2022/11/09 13:30:27;;;;;;;2.38;1.85;;;;;;;;;;5000418;28;20104;-74
2022/11/09 13:33:05;;;;;;;3.30;1.60;;;;;;;;;;5000198;28;20089;-72
2022/11/09 13:35:41;;;;;;;2.88;2.13;;;;;;;;;;4998453;28;20486;-69
2022/11/09 13:38:21;;;;;;;3.35;1.90;;;;;;;;;;4999647;28;20058;-72
2022/11/09 13:40:54;;;;;;;3.53;2.30;;;;;;;;;;4999762;28;20053;-67
2022/11/09 13:43:31;;;;;;;4.88;2.30;;;;;;;;;;4987254;28;20104;-73
2022/11/09 13:46:18;;;;;;;6.07;2.63;;;;;;;;;;4987933;28;20124;-71
2022/11/09 13:48:45;;;;;;;1.85;1.73;;;;;;;;;;5000511;28;20050;-72
2022/11/09 13:51:19;;;;;;;3.08;1.90;;;;;;;;;;5005222;28;20046;-71
2022/11/09 13:53:45;;;;;;;3.38;2.15;;;;;;;;;;4982504;28;20058;-71
2022/11/09 13:56:14;;;;;;;3.55;2.30;;;;;;;;;;5000345;28;20501;-70
2022/11/09 13:58:41;;;;;;;3.83;2.20;;;;;;;;;;5003830;28;20465;-70
2022/11/09 14:01:27;;;;;;;3.45;2.20;;;;;;;;;;4994100;28;20050;-75
2022/11/09 14:03:57;;;;;;;5.25;2.10;;;;;;;;;;5002136;28;20046;-69
2022/11/09 14:06:23;;;;;;;2.13;1.92;;;;;;;;;;4999547;28;20062;-71
2022/11/09 14:08:50;;;;;;;1.88;1.65;;;;;;;;;;5003895;28;20087;-70
2022/11/09 14:12:08;;;;;;;2.60;2.08;;;;;;;;;;4999880;28;20587;-70
2022/11/09 14:14:56;;;;;;;2.75;1.90;;;;;;;;;;4990782;28;20386;-70
2022/11/09 14:17:35;;;;;;;2.92;1.98;;;;;;;;;;4999116;28;20455;-70
2022/11/09 14:20:45;;;;;;;2.88;1.63;;;;;;;;;;4982494;28;20068;-69
2022/11/09 14:23:16;;;;;;;3.53;1.92;;;;;;;;;;5000545;28;20060;-68
2022/11/09 14:25:42;;;;;;;4.60;2.40;;;;;;;;;;4996509;28;20058;-71
2022/11/09 14:28:24;;;;;;;5.63;2.80;;;;;;;;;;5000123;28;20054;-70
2022/11/09 14:30:51;;;;;;;5.95;2.88;;;;;;;;;;5008254;28;20049;-69
2022/11/09 14:33:28;;;;;;;5.00;3.40;;;;;;;;;;4998913;28;20477;-69
2022/11/09 14:35:56;;;;;;;6.28;3.30;;;;;;;;;;5000547;28;20104;-70
2022/11/09 14:38:35;;;;;;;4.00;3.30;;;;;;;;;;5007120;28;20108;-70
2022/11/09 14:41:02;;;;;;;6.28;3.90;;;;;;;;;;5003429;28;20056;-69
2022/11/09 14:43:37;;;;;;;5.20;3.55;;;;;;;;;;5000017;28;20049;-69
2022/11/09 14:46:05;;;;;;;5.75;3.75;;;;;;;;;;4999015;28;20058;-70
2022/11/09 14:48:32;;;;;;;8.45;5.15;;;;;;;;;;5017917;28;20053;-70
2022/11/09 14:51:01;;;;;;;6.97;4.85;;;;;;;;;;5001008;28;20132;-71
2022/11/09 14:53:34;;;;;;;7.00;5.30;;;;;;;;;;5008613;28;20100;-71
2022/11/09 14:56:04;;;;;;;7.28;5.15;;;;;;;;;;5008966;28;20037;-70
2022/11/09 14:58:33;;;;;;;8.07;4.97;;;;;;;;;;5020014;23;20073;-69
2022/11/09 15:01:21;;;;;;;6.25;5.00;;;;;;;;;;5015421;28;20050;-69
2022/11/09 15:04:06;;;;;;;6.78;5.20;;;;;;;;;;4998851;28;20058;-71
2022/11/09 15:06:33;;;;;;;5.82;4.78;;;;;;;;;;4999352;28;20133;-70
2022/11/09 15:09:07;;;;;;;10.63;5.57;;;;;;;;;;5004900;28;20108;-68
2022/11/09 15:11:36;;;;;;;8.73;7.35;;;;;;;;;;4998208;28;20051;-70